Terminal Aerodrome Forecast
Issued by NWS

Home | Current Version | Previous Version | Graphics & Text | Print | Product List | Glossary On
Versions: 1 2 3 4 5 6 7 8 9 10 11 12 13 14 15 16 17 18 19 20
000
FTUS43 KMPX 181100
TAFAXN
TAF
KAXN 181120Z 1812/1912 12006KT P6SM BKN060 OVC090
     FM181600 13016G24KT P6SM FEW050 BKN100
     FM182300 13017G27KT P6SM SCT100 BKN200
     FM190500 13016G25KT P6SM BKN050 OVC090
     FM190700 14017G25KT 5SM -SHRA BR SCT015 OVC025=

USA.gov is the U.S. government's official web portal to all federal, state and local government web resources and services.